Time;durP1;ratioP1;P1;durP2;ratioP2;P2;SDS_P1;SDS_P2;PMS_P1;PMS_P2;Temp;Humidity;BMP_temperature;BMP_pressure;BME280_temperature;BME280_humidity;BME280_pressure;Samples;Min_cycle;Max_cycle;Signal;HPM_P1;HPM_P2
2024/04/05 00:01:55;;;;;;;1.77;0.60;;;;;;;;;;5110340;28;20542;-52
2024/04/05 00:04:20;;;;;;;2.10;0.80;;;;;;;;;;5110450;28;20031;-50
2024/04/05 00:06:45;;;;;;;2.45;0.90;;;;;;;;;;5109093;28;20110;-51
2024/04/05 00:09:11;;;;;;;2.83;1.42;;;;;;;;;;5109678;28;20036;-49
2024/04/05 00:11:36;;;;;;;2.20;0.90;;;;;;;;;;5110126;28;20023;-51
2024/04/05 00:14:02;;;;;;;2.63;0.90;;;;;;;;;;5110290;28;20030;-51
2024/04/05 00:16:28;;;;;;;1.52;0.75;;;;;;;;;;5110378;28;20375;-50
2024/04/05 00:18:54;;;;;;;1.60;0.82;;;;;;;;;;5110134;28;20038;-49
2024/04/05 00:21:20;;;;;;;3.13;0.80;;;;;;;;;;5109415;28;20028;-50
2024/04/05 00:23:45;;;;;;;4.72;1.20;;;;;;;;;;5110322;28;20066;-49
2024/04/05 00:26:10;;;;;;;1.45;0.70;;;;;;;;;;5108981;28;20278;-50
2024/04/05 00:28:36;;;;;;;1.40;0.65;;;;;;;;;;5110412;28;20026;-52
2024/04/05 00:31:03;;;;;;;2.40;0.90;;;;;;;;;;5110269;28;20063;-58
2024/04/05 00:33:29;;;;;;;1.98;0.90;;;;;;;;;;5109151;28;20088;-58
2024/04/05 00:35:55;;;;;;;2.38;0.82;;;;;;;;;;5110197;28;21215;-59
2024/04/05 00:38:25;;;;;;;2.08;1.00;;;;;;;;;;5110117;28;20083;-58
2024/04/05 00:40:51;;;;;;;3.58;1.10;;;;;;;;;;5110003;28;20463;-61
2024/04/05 00:43:17;;;;;;;2.30;0.80;;;;;;;;;;5113169;28;20382;-52
2024/04/05 00:45:46;;;;;;;2.22;1.00;;;;;;;;;;5110486;28;20032;-51
2024/04/05 00:48:13;;;;;;;3.47;1.10;;;;;;;;;;5103228;28;20032;-53
2024/04/05 00:50:39;;;;;;;2.63;0.98;;;;;;;;;;5112518;28;20076;-51
2024/04/05 00:53:04;;;;;;;3.25;0.90;;;;;;;;;;5114194;28;20118;-52
2024/04/05 00:55:30;;;;;;;3.03;1.02;;;;;;;;;;5114030;28;20157;-53
2024/04/05 00:58:02;;;;;;;2.67;1.00;;;;;;;;;;5116170;27;20028;-53
2024/04/05 01:00:28;;;;;;;4.43;0.98;;;;;;;;;;5113637;27;20493;-51
2024/04/05 01:02:54;;;;;;;2.58;0.88;;;;;;;;;;5113902;28;20036;-53
2024/04/05 01:05:19;;;;;;;3.47;1.15;;;;;;;;;;5113774;28;20111;-53
2024/04/05 01:07:46;;;;;;;3.70;1.25;;;;;;;;;;5113423;27;20122;-54
2024/04/05 01:10:11;;;;;;;2.20;0.90;;;;;;;;;;5113680;28;20038;-53
2024/04/05 01:12:37;;;;;;;3.80;1.00;;;;;;;;;;5113681;28;20047;-54
2024/04/05 01:15:02;;;;;;;4.60;1.40;;;;;;;;;;5113269;28;20036;-50
2024/04/05 01:17:28;;;;;;;2.17;0.98;;;;;;;;;;5113728;28;20110;-50
2024/04/05 01:19:56;;;;;;;2.58;0.88;;;;;;;;;;5113564;28;20454;-50
2024/04/05 01:22:26;;;;;;;2.58;0.85;;;;;;;;;;5113131;28;20036;-51
2024/04/05 01:24:51;;;;;;;2.20;0.90;;;;;;;;;;5110093;28;20031;-54
2024/04/05 01:27:17;;;;;;;3.90;1.35;;;;;;;;;;5113584;28;20077;-52
2024/04/05 01:29:42;;;;;;;3.53;1.00;;;;;;;;;;5112901;28;20080;-51
2024/04/05 01:32:07;;;;;;;3.72;0.95;;;;;;;;;;5113450;28;20031;-50
2024/04/05 01:34:33;;;;;;;2.90;0.90;;;;;;;;;;5113335;28;20031;-53
2024/04/05 01:36:58;;;;;;;2.80;1.00;;;;;;;;;;5113067;28;20036;-50
2024/04/05 01:39:24;;;;;;;1.52;0.80;;;;;;;;;;5112775;28;20414;-51
2024/04/05 01:41:49;;;;;;;3.08;0.82;;;;;;;;;;5113218;28;20042;-52
2024/04/05 01:44:14;;;;;;;2.75;1.10;;;;;;;;;;5113138;28;20074;-55
2024/04/05 01:46:40;;;;;;;3.20;0.90;;;;;;;;;;5112523;28;20043;-51
2024/04/05 01:49:05;;;;;;;3.67;0.90;;;;;;;;;;5112819;28;20055;-54
2024/04/05 01:51:30;;;;;;;3.45;1.00;;;;;;;;;;5113095;28;20040;-51
2024/04/05 01:53:55;;;;;;;4.55;0.90;;;;;;;;;;5111291;28;20035;-52
2024/04/05 01:56:21;;;;;;;4.40;1.10;;;;;;;;;;5113125;28;20031;-53
2024/04/05 01:58:46;;;;;;;3.08;0.98;;;;;;;;;;5118666;27;20039;-51
2024/04/05 02:01:12;;;;;;;3.83;1.30;;;;;;;;;;5112194;28;20036;-51
2024/04/05 02:03:37;;;;;;;2.97;0.98;;;;;;;;;;5112457;28;20027;-53
2024/04/05 02:06:11;;;;;;;2.63;0.80;;;;;;;;;;5112633;27;20035;-49
2024/04/05 02:08:37;;;;;;;3.20;1.00;;;;;;;;;;5112097;28;20050;-52
2024/04/05 02:11:02;;;;;;;3.03;1.00;;;;;;;;;;5112134;28;20023;-52
2024/04/05 02:13:27;;;;;;;3.13;1.20;;;;;;;;;;5112456;28;20042;-50
2024/04/05 02:15:53;;;;;;;5.13;1.05;;;;;;;;;;5112576;28;20031;-55
2024/04/05 02:18:18;;;;;;;2.17;0.65;;;;;;;;;;5111958;28;20027;-50
2024/04/05 02:20:53;;;;;;;2.08;0.95;;;;;;;;;;5112442;28;20042;-52
2024/04/05 02:23:18;;;;;;;2.47;1.10;;;;;;;;;;5112270;28;20065;-50
2024/04/05 02:25:43;;;;;;;2.63;0.82;;;;;;;;;;5111818;28;20040;-52
2024/04/05 02:28:09;;;;;;;2.15;0.77;;;;;;;;;;5111987;28;20608;-50
2024/04/05 02:30:38;;;;;;;3.83;1.08;;;;;;;;;;5112289;28;20035;-50
2024/04/05 02:33:04;;;;;;;2.33;0.98;;;;;;;;;;5127329;27;20063;-50
2024/04/05 02:35:29;;;;;;;3.70;0.82;;;;;;;;;;5112061;28;20055;-53
2024/04/05 02:37:54;;;;;;;4.30;0.98;;;;;;;;;;5112109;28;20036;-52
2024/04/05 02:40:20;;;;;;;3.42;1.02;;;;;;;;;;5111747;28;20065;-51
2024/04/05 02:42:45;;;;;;;2.08;1.00;;;;;;;;;;5111679;28;20516;-51
2024/04/05 02:45:10;;;;;;;2.13;0.70;;;;;;;;;;5112117;28;20386;-50
2024/04/05 02:47:36;;;;;;;2.53;1.05;;;;;;;;;;5111889;28;20386;-51
2024/04/05 02:50:01;;;;;;;1.90;0.85;;;;;;;;;;5110969;28;20131;-51
2024/04/05 02:52:28;;;;;;;1.98;0.80;;;;;;;;;;5111727;28;20459;-53
2024/04/05 02:54:53;;;;;;;2.92;0.88;;;;;;;;;;5111774;28;20134;-51
2024/04/05 02:57:18;;;;;;;2.65;0.82;;;;;;;;;;5109137;28;20506;-50
2024/04/05 02:59:43;;;;;;;2.13;0.90;;;;;;;;;;5117112;27;20047;-54
2024/04/05 03:02:09;;;;;;;2.08;0.60;;;;;;;;;;5111213;28;20059;-50
2024/04/05 03:04:34;;;;;;;1.42;0.70;;;;;;;;;;5110436;28;20035;-52
2024/04/05 03:06:59;;;;;;;2.28;0.80;;;;;;;;;;5110996;28;20040;-52
2024/04/05 03:09:25;;;;;;;4.63;0.95;;;;;;;;;;5111134;28;20047;-52
2024/04/05 03:11:50;;;;;;;2.80;0.93;;;;;;;;;;5111375;28;20024;-52
2024/04/05 03:14:15;;;;;;;2.15;0.80;;;;;;;;;;5110984;28;20402;-49
2024/04/05 03:16:41;;;;;;;1.65;0.75;;;;;;;;;;5111420;28;20381;-53
2024/04/05 03:19:06;;;;;;;2.03;0.80;;;;;;;;;;5111206;28;20072;-52
2024/04/05 03:21:32;;;;;;;2.08;0.80;;;;;;;;;;5100213;28;20439;-51
2024/04/05 03:23:58;;;;;;;1.83;0.80;;;;;;;;;;5110881;28;20046;-50
2024/04/05 03:26:23;;;;;;;1.92;0.80;;;;;;;;;;5111102;28;20024;-50
2024/04/05 03:28:48;;;;;;;3.35;0.90;;;;;;;;;;5110095;28;20417;-53
2024/04/05 03:31:13;;;;;;;3.28;0.90;;;;;;;;;;5111136;28;20480;-50
2024/04/05 03:33:39;;;;;;;3.05;0.90;;;;;;;;;;5109939;28;20570;-53
2024/04/05 03:36:05;;;;;;;2.03;0.60;;;;;;;;;;5110682;28;20518;-50
2024/04/05 03:38:30;;;;;;;1.77;0.70;;;;;;;;;;5110637;28;20474;-53
2024/04/05 03:40:55;;;;;;;2.75;0.70;;;;;;;;;;5110913;28;20039;-52
2024/04/05 03:43:21;;;;;;;1.98;0.75;;;;;;;;;;5111322;28;20031;-53
2024/04/05 03:45:46;;;;;;;3.30;0.70;;;;;;;;;;5110523;28;20043;-52
2024/04/05 03:48:11;;;;;;;1.58;0.70;;;;;;;;;;5110718;28;20031;-53
2024/04/05 03:50:37;;;;;;;2.03;0.70;;;;;;;;;;5109529;28;20469;-53
2024/04/05 03:53:03;;;;;;;2.08;0.85;;;;;;;;;;5107025;28;20518;-52
2024/04/05 03:55:28;;;;;;;1.40;0.60;;;;;;;;;;5108673;28;20526;-52
2024/04/05 03:57:53;;;;;;;2.00;0.85;;;;;;;;;;5112991;28;20051;-53
2024/04/05 04:00:21;;;;;;;1.38;0.70;;;;;;;;;;5119832;27;20036;-53
2024/04/05 04:02:50;;;;;;;2.03;0.70;;;;;;;;;;5109332;28;20031;-52
2024/04/05 04:05:16;;;;;;;1.83;0.70;;;;;;;;;;5126574;28;20115;-51
2024/04/05 04:07:42;;;;;;;1.83;0.70;;;;;;;;;;5109994;28;20583;-55
2024/04/05 04:10:07;;;;;;;2.15;0.75;;;;;;;;;;5110393;28;20059;-52
2024/04/05 04:12:32;;;;;;;2.28;1.10;;;;;;;;;;5110823;28;20023;-51
2024/04/05 04:14:58;;;;;;;2.50;0.73;;;;;;;;;;5110579;28;20046;-55
2024/04/05 04:17:23;;;;;;;3.20;0.90;;;;;;;;;;5112014;28;20028;-53
2024/04/05 04:19:48;;;;;;;2.28;0.77;;;;;;;;;;5114763;28;20031;-51
2024/04/05 04:22:14;;;;;;;1.67;0.70;;;;;;;;;;5114435;28;20081;-54
2024/04/05 04:24:40;;;;;;;1.73;0.70;;;;;;;;;;5114217;28;20498;-51
2024/04/05 04:27:07;;;;;;;2.10;0.70;;;;;;;;;;5111791;28;20084;-53
2024/04/05 04:29:32;;;;;;;3.50;0.80;;;;;;;;;;5114684;28;20040;-50
2024/04/05 04:31:59;;;;;;;2.20;0.80;;;;;;;;;;5114095;28;20055;-51
2024/04/05 04:34:24;;;;;;;0.90;0.55;;;;;;;;;;5114555;28;20069;-50
2024/04/05 04:36:50;;;;;;;1.35;0.70;;;;;;;;;;5114264;28;20035;-50
2024/04/05 04:39:15;;;;;;;1.17;0.50;;;;;;;;;;5112992;28;20031;-53
2024/04/05 04:41:40;;;;;;;1.98;0.70;;;;;;;;;;5114299;28;20051;-53
2024/04/05 04:44:06;;;;;;;2.35;0.80;;;;;;;;;;5111483;28;20086;-52
2024/04/05 04:46:32;;;;;;;1.40;0.60;;;;;;;;;;5114122;28;20035;-52
2024/04/05 04:48:58;;;;;;;1.48;0.57;;;;;;;;;;5113680;28;20040;-51
2024/04/05 04:51:23;;;;;;;2.55;0.68;;;;;;;;;;5114140;28;20032;-54
2024/04/05 04:53:49;;;;;;;2.30;0.70;;;;;;;;;;5114180;28;20114;-50
2024/04/05 04:56:16;;;;;;;2.45;0.70;;;;;;;;;;5113763;28;20034;-53
2024/04/05 04:58:41;;;;;;;1.67;0.65;;;;;;;;;;5121134;27;20112;-53
2024/04/05 05:01:07;;;;;;;1.65;0.70;;;;;;;;;;5113937;28;20023;-49
2024/04/05 05:03:33;;;;;;;2.17;0.70;;;;;;;;;;5113495;28;20356;-53
2024/04/05 05:05:58;;;;;;;1.52;0.70;;;;;;;;;;5113537;28;20050;-54
2024/04/05 05:08:23;;;;;;;1.65;0.77;;;;;;;;;;5113986;28;20076;-52
2024/04/05 05:10:49;;;;;;;1.67;0.80;;;;;;;;;;5113801;28;20538;-52
2024/04/05 05:13:14;;;;;;;2.05;0.88;;;;;;;;;;5113238;28;20035;-53
2024/04/05 05:15:41;;;;;;;0.90;0.60;;;;;;;;;;5113690;28;20036;-50
2024/04/05 05:18:10;;;;;;;1.35;0.73;;;;;;;;;;5113405;28;20580;-49
2024/04/05 05:20:36;;;;;;;3.53;1.10;;;;;;;;;;5111934;28;20039;-51
2024/04/05 05:23:01;;;;;;;2.42;0.80;;;;;;;;;;5113192;28;20058;-50
2024/04/05 05:25:27;;;;;;;2.55;0.80;;;;;;;;;;5113651;28;20032;-49
2024/04/05 05:27:52;;;;;;;1.33;0.70;;;;;;;;;;5112716;28;20555;-55
2024/04/05 05:30:18;;;;;;;3.40;0.90;;;;;;;;;;5113377;28;20075;-51
2024/04/05 05:32:44;;;;;;;2.55;0.68;;;;;;;;;;5113469;28;20028;-52
2024/04/05 05:35:09;;;;;;;1.92;0.90;;;;;;;;;;5112668;28;20036;-49
2024/04/05 05:37:35;;;;;;;1.45;0.75;;;;;;;;;;5113423;28;20043;-58
2024/04/05 05:40:00;;;;;;;3.53;1.27;;;;;;;;;;5113093;28;20040;-58
2024/04/05 05:42:27;;;;;;;2.05;0.77;;;;;;;;;;5113099;28;20038;-60
2024/04/05 05:44:55;;;;;;;1.70;0.80;;;;;;;;;;5111518;28;20035;-62
2024/04/05 05:47:21;;;;;;;2.20;0.93;;;;;;;;;;5128944;27;20103;-54
2024/04/05 05:49:49;;;;;;;2.05;0.90;;;;;;;;;;5112520;28;20649;-61
2024/04/05 05:52:15;;;;;;;1.95;0.70;;;;;;;;;;5128553;27;20043;-59
2024/04/05 05:54:40;;;;;;;1.92;0.82;;;;;;;;;;5112916;28;20050;-58
2024/04/05 05:57:05;;;;;;;1.90;0.80;;;;;;;;;;5112867;28;20039;-61
2024/04/05 05:59:31;;;;;;;2.97;0.80;;;;;;;;;;5113549;27;20375;-58
2024/04/05 06:01:57;;;;;;;2.28;0.85;;;;;;;;;;5112847;28;20531;-51
2024/04/05 06:04:22;;;;;;;1.65;0.73;;;;;;;;;;5112757;28;20498;-52
2024/04/05 06:06:47;;;;;;;3.42;1.10;;;;;;;;;;5112382;28;20040;-51
2024/04/05 06:09:16;;;;;;;2.50;1.00;;;;;;;;;;5112405;28;20037;-49
2024/04/05 06:11:42;;;;;;;1.92;0.90;;;;;;;;;;5111812;28;20087;-50
2024/04/05 06:14:07;;;;;;;1.88;0.85;;;;;;;;;;5112156;28;20039;-54
2024/04/05 06:16:33;;;;;;;3.47;1.17;;;;;;;;;;5111951;28;20061;-54
2024/04/05 06:18:58;;;;;;;2.10;0.70;;;;;;;;;;5110420;28;20051;-60
2024/04/05 06:21:23;;;;;;;3.75;1.02;;;;;;;;;;5112268;28;20028;-55
2024/04/05 06:23:49;;;;;;;2.58;0.80;;;;;;;;;;5111688;28;20042;-60
2024/04/05 06:26:14;;;;;;;2.47;0.90;;;;;;;;;;5112201;28;20040;-59
2024/04/05 06:28:39;;;;;;;3.42;0.88;;;;;;;;;;5112285;28;20035;-57
2024/04/05 06:31:05;;;;;;;2.28;0.88;;;;;;;;;;5112118;28;20042;-60
2024/04/05 06:33:30;;;;;;;2.47;0.80;;;;;;;;;;5112274;28;20039;-51
2024/04/05 06:35:58;;;;;;;2.63;0.80;;;;;;;;;;5111972;28;20474;-50
2024/04/05 06:38:24;;;;;;;1.73;0.70;;;;;;;;;;5111880;28;20073;-50
2024/04/05 06:40:55;;;;;;;1.38;0.70;;;;;;;;;;5110936;28;20035;-53
2024/04/05 06:43:20;;;;;;;2.92;0.90;;;;;;;;;;5111848;28;20069;-53
2024/04/05 06:45:55;;;;;;;1.55;0.80;;;;;;;;;;5111733;28;20031;-51
2024/04/05 06:48:21;;;;;;;2.83;0.70;;;;;;;;;;5109456;28;20461;-49
2024/04/05 06:50:48;;;;;;;1.48;0.80;;;;;;;;;;5111267;28;20051;-52
2024/04/05 06:53:14;;;;;;;1.50;0.70;;;;;;;;;;5111320;28;20122;-49
2024/04/05 06:55:45;;;;;;;1.80;0.77;;;;;;;;;;5111156;28;20107;-50
2024/04/05 06:58:12;;;;;;;2.63;0.80;;;;;;;;;;5115086;27;20031;-50
2024/04/05 07:00:38;;;;;;;2.22;0.70;;;;;;;;;;5113921;27;20410;-61
2024/04/05 07:03:03;;;;;;;1.35;0.70;;;;;;;;;;5128805;27;20038;-60
2024/04/05 07:05:29;;;;;;;1.67;0.70;;;;;;;;;;5111584;28;20028;-59
2024/04/05 07:07:54;;;;;;;2.35;0.73;;;;;;;;;;5111408;28;20038;-60
2024/04/05 07:10:20;;;;;;;2.58;0.70;;;;;;;;;;5111099;28;20118;-58
2024/04/05 07:12:48;;;;;;;1.77;0.70;;;;;;;;;;5111111;28;20434;-59
2024/04/05 07:15:13;;;;;;;3.05;0.80;;;;;;;;;;5111365;28;20465;-60
2024/04/05 07:17:38;;;;;;;2.58;0.70;;;;;;;;;;5111314;28;20043;-57
2024/04/05 07:20:04;;;;;;;3.17;0.77;;;;;;;;;;5110898;28;20080;-53
2024/04/05 07:22:29;;;;;;;2.65;0.70;;;;;;;;;;5111466;28;20500;-52
2024/04/05 07:24:55;;;;;;;2.80;1.00;;;;;;;;;;5111016;28;20515;-52
2024/04/05 07:27:20;;;;;;;2.03;0.80;;;;;;;;;;5110890;28;20031;-53
2024/04/05 07:29:46;;;;;;;3.42;0.80;;;;;;;;;;5111258;28;20034;-51
2024/04/05 07:32:11;;;;;;;2.22;0.90;;;;;;;;;;5110979;28;20040;-51
2024/04/05 07:34:37;;;;;;;2.28;0.82;;;;;;;;;;5110591;28;20028;-52
2024/04/05 07:37:02;;;;;;;1.98;0.80;;;;;;;;;;5110715;28;20572;-51
2024/04/05 07:39:28;;;;;;;2.05;0.70;;;;;;;;;;5110792;28;20047;-55
2024/04/05 07:41:53;;;;;;;2.47;0.80;;;;;;;;;;5110816;28;20032;-51
2024/04/05 07:44:20;;;;;;;1.48;0.60;;;;;;;;;;5110821;28;20035;-49
2024/04/05 07:46:46;;;;;;;1.65;0.75;;;;;;;;;;5110803;28;20470;-48
2024/04/05 07:49:11;;;;;;;2.15;0.65;;;;;;;;;;5110772;28;20069;-52
2024/04/05 07:51:36;;;;;;;2.35;0.70;;;;;;;;;;5109011;28;20055;-51
2024/04/05 07:54:02;;;;;;;5.00;1.27;;;;;;;;;;5110834;28;20088;-48
2024/04/05 07:56:27;;;;;;;4.05;0.90;;;;;;;;;;5110903;28;20450;-51
2024/04/05 07:58:52;;;;;;;3.25;1.13;;;;;;;;;;5112546;28;20058;-49
2024/04/05 08:01:18;;;;;;;2.95;1.00;;;;;;;;;;5110561;28;20032;-49
2024/04/05 08:03:44;;;;;;;1.88;0.88;;;;;;;;;;5110894;28;20478;-52
2024/04/05 08:06:09;;;;;;;3.13;0.80;;;;;;;;;;5110019;28;20462;-50
2024/04/05 08:08:34;;;;;;;2.08;0.80;;;;;;;;;;5110737;28;20115;-48
2024/04/05 08:11:00;;;;;;;5.15;1.20;;;;;;;;;;5110282;28;20024;-52
2024/04/05 08:13:26;;;;;;;3.35;1.00;;;;;;;;;;5110533;28;20048;-51
2024/04/05 08:15:51;;;;;;;3.58;1.10;;;;;;;;;;5110402;28;20687;-51
2024/04/05 08:18:17;;;;;;;3.15;0.88;;;;;;;;;;5110757;28;20043;-49
2024/04/05 08:20:42;;;;;;;3.47;1.15;;;;;;;;;;5110637;28;20064;-52
2024/04/05 08:23:07;;;;;;;3.88;1.10;;;;;;;;;;5110003;28;20398;-52
2024/04/05 08:25:32;;;;;;;1.63;0.90;;;;;;;;;;5100865;28;20369;-61
2024/04/05 08:27:58;;;;;;;3.85;1.42;;;;;;;;;;5109712;28;20512;-61
2024/04/05 08:30:23;;;;;;;5.05;1.00;;;;;;;;;;5104908;28;20041;-60
2024/04/05 08:32:49;;;;;;;2.53;0.90;;;;;;;;;;5110335;28;20040;-58
2024/04/05 08:35:14;;;;;;;3.10;0.90;;;;;;;;;;5110357;28;20077;-56
2024/04/05 08:37:40;;;;;;;5.82;1.13;;;;;;;;;;5109573;28;20043;-59
2024/04/05 08:40:07;;;;;;;2.95;0.80;;;;;;;;;;5109964;28;20035;-60
2024/04/05 08:42:34;;;;;;;4.00;1.00;;;;;;;;;;5108067;28;20135;-57
2024/04/05 08:45:00;;;;;;;6.22;1.20;;;;;;;;;;5109859;28;20032;-60
2024/04/05 08:47:26;;;;;;;3.20;1.00;;;;;;;;;;5091493;28;20075;-60
2024/04/05 08:49:52;;;;;;;3.35;1.20;;;;;;;;;;5110078;28;20086;-55
2024/04/05 08:52:17;;;;;;;4.10;0.98;;;;;;;;;;5108842;28;20127;-52
2024/04/05 08:54:43;;;;;;;4.55;1.30;;;;;;;;;;5108646;28;20558;-49
2024/04/05 08:57:09;;;;;;;5.78;1.20;;;;;;;;;;5107890;28;20498;-49
2024/04/05 08:59:35;;;;;;;2.08;0.80;;;;;;;;;;5120323;28;20127;-53
2024/04/05 09:02:01;;;;;;;2.42;0.90;;;;;;;;;;5109883;28;20097;-59
2024/04/05 09:04:27;;;;;;;2.97;1.13;;;;;;;;;;5113174;28;20463;-60
2024/04/05 09:06:53;;;;;;;3.85;0.95;;;;;;;;;;5113928;28;20115;-55
2024/04/05 09:09:29;;;;;;;5.57;1.08;;;;;;;;;;5113584;28;20147;-60
2024/04/05 09:12:04;;;;;;;5.25;1.30;;;;;;;;;;5112467;28;20035;-57
2024/04/05 09:14:29;;;;;;;2.80;1.00;;;;;;;;;;5113352;28;20050;-58
2024/04/05 09:16:56;;;;;;;4.05;1.23;;;;;;;;;;5113359;28;20043;-54
2024/04/05 09:19:22;;;;;;;3.63;1.25;;;;;;;;;;5113175;28;20526;-52
2024/04/05 09:21:47;;;;;;;3.85;1.20;;;;;;;;;;5113292;28;20042;-52
2024/04/05 09:24:15;;;;;;;3.40;1.08;;;;;;;;;;5113507;28;20044;-49
2024/04/05 09:26:40;;;;;;;3.58;1.17;;;;;;;;;;5112836;27;20391;-53
2024/04/05 09:29:07;;;;;;;4.57;1.30;;;;;;;;;;5107294;28;20035;-58
2024/04/05 09:31:33;;;;;;;2.45;1.00;;;;;;;;;;5110920;28;20039;-60
2024/04/05 09:34:08;;;;;;;3.38;1.02;;;;;;;;;;5109407;28;20032;-60
2024/04/05 09:36:34;;;;;;;2.47;1.05;;;;;;;;;;5106431;28;20036;-60
2024/04/05 09:39:02;;;;;;;4.47;1.20;;;;;;;;;;5111818;28;20044;-59
2024/04/05 09:41:28;;;;;;;4.05;1.00;;;;;;;;;;5112247;28;20045;-60
2024/04/05 09:43:54;;;;;;;4.93;1.60;;;;;;;;;;5111889;28;20055;-49
2024/04/05 09:46:20;;;;;;;3.28;1.25;;;;;;;;;;5112076;28;20104;-51
2024/04/05 09:48:45;;;;;;;5.40;1.50;;;;;;;;;;5110351;28;20135;-56
2024/04/05 09:51:15;;;;;;;4.07;1.10;;;;;;;;;;5110345;28;20114;-50
2024/04/05 09:53:47;;;;;;;3.78;1.25;;;;;;;;;;5127696;27;20049;-49
2024/04/05 09:56:18;;;;;;;4.15;1.20;;;;;;;;;;5111007;28;20037;-51
2024/04/05 09:58:44;;;;;;;4.88;1.40;;;;;;;;;;5114034;27;20032;-65
2024/04/05 10:01:09;;;;;;;3.92;1.42;;;;;;;;;;5110234;28;20023;-59
2024/04/05 10:03:35;;;;;;;3.10;0.90;;;;;;;;;;5127579;27;20050;-58
2024/04/05 10:06:15;;;;;;;4.05;1.05;;;;;;;;;;5105867;28;20092;-58
2024/04/05 10:08:40;;;;;;;5.25;1.13;;;;;;;;;;5110362;28;20123;-61
2024/04/05 10:11:15;;;;;;;5.10;1.10;;;;;;;;;;5111286;28;20150;-57
2024/04/05 10:13:41;;;;;;;4.50;1.30;;;;;;;;;;5111004;28;20039;-60
2024/04/05 10:16:08;;;;;;;2.83;1.10;;;;;;;;;;5110452;28;20050;-56
2024/04/05 10:18:37;;;;;;;3.60;1.30;;;;;;;;;;5110549;28;20031;-59
2024/04/05 10:21:08;;;;;;;4.10;1.23;;;;;;;;;;5109488;28;20080;-61
2024/04/05 10:23:34;;;;;;;4.55;1.30;;;;;;;;;;5110201;28;20101;-62
2024/04/05 10:26:00;;;;;;;3.88;1.42;;;;;;;;;;5109317;28;20031;-58
2024/04/05 10:28:28;;;;;;;5.32;1.40;;;;;;;;;;5111235;28;20434;-62
2024/04/05 10:30:54;;;;;;;4.70;1.50;;;;;;;;;;5110770;28;20042;-59
2024/04/05 10:33:20;;;;;;;3.30;1.10;;;;;;;;;;5111117;28;20043;-61
2024/04/05 10:35:49;;;;;;;4.30;1.40;;;;;;;;;;5110903;28;20091;-62
2024/04/05 10:38:16;;;;;;;3.70;1.40;;;;;;;;;;5106574;28;20100;-62
2024/04/05 10:40:44;;;;;;;3.63;1.15;;;;;;;;;;5109549;28;20035;-58
2024/04/05 10:43:11;;;;;;;4.30;1.20;;;;;;;;;;5123199;27;20126;-60
2024/04/05 10:45:41;;;;;;;4.18;1.20;;;;;;;;;;5109557;28;20122;-61
2024/04/05 10:48:06;;;;;;;5.35;1.33;;;;;;;;;;5110662;28;20035;-62
2024/04/05 10:50:39;;;;;;;3.80;1.30;;;;;;;;;;5110946;28;20118;-57
2024/04/05 10:53:05;;;;;;;4.20;1.30;;;;;;;;;;5110096;28;20036;-60
2024/04/05 10:55:30;;;;;;;4.75;1.30;;;;;;;;;;5111041;28;20085;-59
2024/04/05 10:57:56;;;;;;;4.15;1.20;;;;;;;;;;5112025;27;20047;-58
2024/04/05 11:00:21;;;;;;;5.53;1.38;;;;;;;;;;5117400;27;20031;-59
2024/04/05 11:02:47;;;;;;;4.47;1.10;;;;;;;;;;5108119;28;20115;-62
2024/04/05 11:05:14;;;;;;;4.20;1.25;;;;;;;;;;5110488;28;20031;-59
2024/04/05 11:07:41;;;;;;;3.20;1.13;;;;;;;;;;5110544;28;20037;-61
2024/04/05 11:10:17;;;;;;;5.10;1.30;;;;;;;;;;5108553;28;20807;-62
2024/04/05 11:12:46;;;;;;;4.55;1.40;;;;;;;;;;5099636;28;20243;-60
2024/04/05 11:15:11;;;;;;;3.92;1.10;;;;;;;;;;5109110;28;20028;-60
2024/04/05 11:17:37;;;;;;;4.13;1.13;;;;;;;;;;5110402;28;20039;-60
2024/04/05 11:20:13;;;;;;;3.15;1.20;;;;;;;;;;5108862;28;20088;-60
2024/04/05 11:22:39;;;;;;;3.47;1.27;;;;;;;;;;5108224;28;20534;-61
2024/04/05 11:25:06;;;;;;;7.80;1.60;;;;;;;;;;5109672;28;20394;-61
2024/04/05 11:27:32;;;;;;;10.02;1.70;;;;;;;;;;5110188;28;20031;-60
2024/04/05 11:29:57;;;;;;;5.47;1.20;;;;;;;;;;5107882;28;20343;-57
2024/04/05 11:32:31;;;;;;;3.80;1.30;;;;;;;;;;5109696;28;20039;-60
2024/04/05 11:35:00;;;;;;;3.28;1.05;;;;;;;;;;5108543;28;20382;-60
2024/04/05 11:37:25;;;;;;;6.90;1.40;;;;;;;;;;5109018;28;20050;-61
2024/04/05 11:39:51;;;;;;;6.22;1.33;;;;;;;;;;5109636;28;20024;-60
2024/04/05 11:42:16;;;;;;;6.05;1.23;;;;;;;;;;5109840;28;20348;-60
2024/04/05 11:44:41;;;;;;;4.35;1.33;;;;;;;;;;5109436;28;20040;-61
2024/04/05 11:47:07;;;;;;;4.03;1.40;;;;;;;;;;5109296;28;20032;-61
2024/04/05 11:49:32;;;;;;;5.18;1.30;;;;;;;;;;5109458;28;20161;-61
2024/04/05 11:51:58;;;;;;;2.80;0.98;;;;;;;;;;5107659;28;20071;-63
2024/04/05 11:54:24;;;;;;;4.53;1.40;;;;;;;;;;5097829;28;20388;-59
2024/04/05 11:56:49;;;;;;;3.55;1.25;;;;;;;;;;5101612;28;20032;-58
2024/04/05 11:59:14;;;;;;;4.32;1.27;;;;;;;;;;5112259;28;20034;-60
2024/04/05 12:01:40;;;;;;;3.97;1.30;;;;;;;;;;5108643;28;20157;-61
2024/04/05 12:04:06;;;;;;;5.97;1.50;;;;;;;;;;5108240;28;20481;-56
2024/04/05 12:06:33;;;;;;;3.03;0.95;;;;;;;;;;5108837;28;20506;-58
2024/04/05 12:08:59;;;;;;;5.32;1.33;;;;;;;;;;5108083;28;20717;-60
2024/04/05 12:11:25;;;;;;;4.70;1.40;;;;;;;;;;5098562;28;20038;-59
2024/04/05 12:13:50;;;;;;;4.47;1.48;;;;;;;;;;5108907;28;20123;-60
2024/04/05 12:16:15;;;;;;;6.05;1.45;;;;;;;;;;5109084;28;20027;-57
2024/04/05 12:18:41;;;;;;;4.65;1.65;;;;;;;;;;5108983;28;20467;-61
2024/04/05 12:21:07;;;;;;;4.93;1.38;;;;;;;;;;5107170;28;20382;-57
2024/04/05 12:23:32;;;;;;;4.88;1.33;;;;;;;;;;5106092;28;20031;-59
2024/04/05 12:25:58;;;;;;;6.00;1.35;;;;;;;;;;5108581;28;20618;-62
2024/04/05 12:28:23;;;;;;;4.90;1.52;;;;;;;;;;5107030;28;20043;-60
2024/04/05 12:30:48;;;;;;;4.47;1.30;;;;;;;;;;5102578;28;20040;-61
2024/04/05 12:33:14;;;;;;;5.95;1.45;;;;;;;;;;5109744;28;20043;-61
2024/04/05 12:35:39;;;;;;;3.00;1.10;;;;;;;;;;5109418;28;20036;-60
2024/04/05 12:38:06;;;;;;;4.32;1.42;;;;;;;;;;5110620;28;20039;-60
2024/04/05 12:40:39;;;;;;;3.78;1.60;;;;;;;;;;5107660;28;20031;-60
2024/04/05 12:43:06;;;;;;;3.50;1.30;;;;;;;;;;5112395;28;20069;-60
2024/04/05 12:45:32;;;;;;;6.68;1.98;;;;;;;;;;5107561;28;20027;-61
2024/04/05 12:47:57;;;;;;;4.70;1.40;;;;;;;;;;5108508;27;20035;-54
2024/04/05 12:50:23;;;;;;;4.53;1.40;;;;;;;;;;5110175;28;20140;-50
2024/04/05 12:52:49;;;;;;;4.75;1.30;;;;;;;;;;5111544;28;20055;-50
2024/04/05 12:55:15;;;;;;;5.57;1.25;;;;;;;;;;5112532;28;20042;-51
2024/04/05 12:57:40;;;;;;;3.92;1.25;;;;;;;;;;5100836;27;20086;-52
2024/04/05 13:00:10;;;;;;;4.22;1.20;;;;;;;;;;5112812;27;20051;-58
2024/04/05 13:02:36;;;;;;;3.85;1.20;;;;;;;;;;5104716;28;20353;-59
2024/04/05 13:05:02;;;;;;;5.32;1.40;;;;;;;;;;5113252;28;20039;-59
2024/04/05 13:07:28;;;;;;;4.97;1.67;;;;;;;;;;5113298;28;20040;-60
2024/04/05 13:09:53;;;;;;;3.40;1.05;;;;;;;;;;5113207;28;20046;-57
2024/04/05 13:12:19;;;;;;;4.70;1.50;;;;;;;;;;5113420;28;20035;-55
2024/04/05 13:14:44;;;;;;;7.22;1.52;;;;;;;;;;5113175;28;20027;-59
2024/04/05 13:17:09;;;;;;;5.40;1.50;;;;;;;;;;5109490;28;20067;-56
2024/04/05 13:19:35;;;;;;;2.85;1.17;;;;;;;;;;5112050;28;20034;-59
2024/04/05 13:22:00;;;;;;;5.80;1.75;;;;;;;;;;5112385;28;20039;-54
2024/04/05 13:24:28;;;;;;;3.25;1.23;;;;;;;;;;5112177;28;20164;-60
2024/04/05 13:26:53;;;;;;;4.65;1.52;;;;;;;;;;5112326;28;20039;-59
2024/04/05 13:29:19;;;;;;;4.63;1.30;;;;;;;;;;5111918;28;20062;-57
2024/04/05 13:31:44;;;;;;;6.75;1.77;;;;;;;;;;5111576;28;20046;-58
2024/04/05 13:34:09;;;;;;;4.72;1.20;;;;;;;;;;5112514;28;20073;-55
2024/04/05 13:36:35;;;;;;;5.45;1.50;;;;;;;;;;5111963;28;20063;-56
2024/04/05 13:39:01;;;;;;;4.22;1.50;;;;;;;;;;5112568;28;20040;-59
2024/04/05 13:41:27;;;;;;;6.18;1.13;;;;;;;;;;5112614;28;20042;-58
2024/04/05 13:43:52;;;;;;;6.60;1.77;;;;;;;;;;5113093;28;20535;-54
2024/04/05 13:46:19;;;;;;;4.75;1.63;;;;;;;;;;5112684;28;20039;-50
2024/04/05 13:48:45;;;;;;;5.05;1.50;;;;;;;;;;5127736;27;20087;-49
2024/04/05 13:51:14;;;;;;;4.25;1.20;;;;;;;;;;5094538;28;20057;-51
2024/04/05 13:53:40;;;;;;;3.47;1.08;;;;;;;;;;5112504;28;20104;-52
2024/04/05 13:56:06;;;;;;;3.50;1.40;;;;;;;;;;5112294;28;20027;-52
2024/04/05 13:58:32;;;;;;;4.05;1.42;;;;;;;;;;5117946;27;20430;-51
2024/04/05 14:00:58;;;;;;;5.30;1.60;;;;;;;;;;5112520;28;20075;-51
2024/04/05 14:03:24;;;;;;;4.50;1.33;;;;;;;;;;5112211;28;20604;-51
2024/04/05 14:05:50;;;;;;;5.68;1.60;;;;;;;;;;5112147;28;20035;-58
2024/04/05 14:08:19;;;;;;;5.05;1.58;;;;;;;;;;5112487;28;20043;-57
2024/04/05 14:10:46;;;;;;;4.03;1.25;;;;;;;;;;5107908;28;20023;-57
2024/04/05 14:13:11;;;;;;;6.10;1.40;;;;;;;;;;5112196;28;20042;-59
2024/04/05 14:15:37;;;;;;;5.05;1.23;;;;;;;;;;5111931;28;20040;-57
2024/04/05 14:18:04;;;;;;;5.22;1.95;;;;;;;;;;5112288;28;20106;-57
2024/04/05 14:20:29;;;;;;;7.25;1.48;;;;;;;;;;5109999;28;20501;-50
2024/04/05 14:22:55;;;;;;;3.42;1.10;;;;;;;;;;5109569;28;20907;-52
2024/04/05 14:25:20;;;;;;;4.47;1.40;;;;;;;;;;5111858;28;20664;-51
2024/04/05 14:27:46;;;;;;;3.55;1.05;;;;;;;;;;5111659;28;20100;-51
2024/04/05 14:30:11;;;;;;;3.85;1.33;;;;;;;;;;5111747;28;20043;-48
2024/04/05 14:32:37;;;;;;;5.28;1.27;;;;;;;;;;5111942;28;20027;-49
2024/04/05 14:35:04;;;;;;;4.93;1.52;;;;;;;;;;5111564;28;20036;-51
2024/04/05 14:37:30;;;;;;;3.88;1.45;;;;;;;;;;5111490;28;20574;-49